createdAt,value
2022-09-28T00:00:58.358Z,9.30
2022-09-28T00:03:28.073Z,9.50
2022-09-28T00:06:02.637Z,8.80
2022-09-28T00:08:30.787Z,11.70
2022-09-28T00:10:58.996Z,10.50
2022-09-28T00:13:26.695Z,11.07
2022-09-28T00:16:02.592Z,9.73
2022-09-28T00:18:32.243Z,11.07
2022-09-28T00:21:04.741Z,10.63
2022-09-28T00:23:33.109Z,10.63
2022-09-28T00:26:03.880Z,10.47
2022-09-28T00:28:32.103Z,9.77
2022-09-28T00:31:00.332Z,11.10
2022-09-28T00:33:28.095Z,13.57
2022-09-28T00:35:58.769Z,9.43
2022-09-28T00:38:31.051Z,10.80
2022-09-28T00:40:59.670Z,8.87
2022-09-28T00:43:28.039Z,8.87
2022-09-28T00:46:00.144Z,10.43
2022-09-28T00:48:30.460Z,11.13
2022-09-28T00:51:04.937Z,10.53
2022-09-28T00:53:36.486Z,11.77
2022-09-28T00:56:09.212Z,9.10
2022-09-28T00:58:42.465Z,12.07
2022-09-28T01:01:10.337Z,9.77
2022-09-28T01:03:38.684Z,10.27
2022-09-28T01:06:09.254Z,9.03
2022-09-28T01:08:38.008Z,10.73
2022-09-28T01:11:05.963Z,8.97
2022-09-28T01:13:34.368Z,12.60
2022-09-28T01:16:10.776Z,11.13
2022-09-28T01:18:48.666Z,11.60
2022-09-28T01:21:20.048Z,14.97
2022-09-28T01:24:14.981Z,11.73
2022-09-28T01:26:50.282Z,15.30
2022-09-28T01:29:23.206Z,14.23
2022-09-28T01:31:57.685Z,15.93
2022-09-28T01:34:32.167Z,13.30
2022-09-28T01:37:04.274Z,14.80
2022-09-28T01:39:36.183Z,15.03
2022-09-28T01:42:13.009Z,17.47
2022-09-28T01:44:46.356Z,21.77
2022-09-28T01:47:18.834Z,16.83
2022-09-28T01:49:50.774Z,20.47
2022-09-28T01:52:24.122Z,20.07
2022-09-28T01:54:58.137Z,18.03
2022-09-28T01:57:33.555Z,19.50
2022-09-28T02:00:06.104Z,22.23
2022-09-28T02:02:39.656Z,22.37
2022-09-28T02:05:12.946Z,20.90
2022-09-28T02:07:45.797Z,23.87
2022-09-28T02:10:17.785Z,21.67
2022-09-28T02:12:52.379Z,20.13
2022-09-28T02:15:24.255Z,21.40
2022-09-28T02:17:52.539Z,24.27
2022-09-28T02:20:22.767Z,23.33
2022-09-28T02:22:52.810Z,24.10
2022-09-28T02:25:29.418Z,23.10
2022-09-28T02:28:01.959Z,25.80
2022-09-28T02:30:31.569Z,27.27
2022-09-28T02:33:06.362Z,27.47
2022-09-28T02:35:35.339Z,27.00
2022-09-28T02:38:03.282Z,27.07
2022-09-28T02:40:33.388Z,30.20
2022-09-28T02:43:11.352Z,26.60
2022-09-28T02:45:50.712Z,26.73
2022-09-28T02:48:43.696Z,27.87
2022-09-28T02:51:21.956Z,31.13
2022-09-28T02:54:22.571Z,29.73
2022-09-28T02:57:11.392Z,30.13
2022-09-28T02:59:50.827Z,30.10
2022-09-28T03:02:29.301Z,30.53
2022-09-28T03:05:07.748Z,32.07
2022-09-28T03:07:38.571Z,30.87
2022-09-28T03:10:14.889Z,30.00
2022-09-28T03:12:45.594Z,27.03
2022-09-28T03:15:22.029Z,26.80
2022-09-28T03:17:50.626Z,33.30
2022-09-28T03:20:19.458Z,31.70
2022-09-28T03:23:05.958Z,29.20
2022-09-28T03:25:35.489Z,29.47
2022-09-28T03:28:03.280Z,28.40
2022-09-28T03:30:32.390Z,27.97
2022-09-28T03:33:02.420Z,27.57
2022-09-28T03:35:30.169Z,30.90
2022-09-28T03:37:58.194Z,28.30
2022-09-28T03:40:27.134Z,25.53
2022-09-28T03:42:55.075Z,30.67
2022-09-28T03:45:22.821Z,26.80
2022-09-28T03:47:51.918Z,29.83
2022-09-28T03:50:19.650Z,28.97
2022-09-28T03:52:47.337Z,32.37
2022-09-28T03:55:15.329Z,27.50
2022-09-28T03:57:43.025Z,28.73
2022-09-28T04:00:11.848Z,29.20
2022-09-28T04:02:39.994Z,29.87
2022-09-28T04:05:09.944Z,30.90
2022-09-28T04:07:37.678Z,29.90
2022-09-28T04:10:05.870Z,30.43
2022-09-28T04:12:33.576Z,31.10
2022-09-28T04:15:01.284Z,30.83
2022-09-28T04:17:29.041Z,29.93
2022-09-28T04:19:57.736Z,30.87
2022-09-28T04:22:26.868Z,30.10
2022-09-28T04:24:55.008Z,27.30
2022-09-28T04:27:40.010Z,28.83
2022-09-28T04:30:08.972Z,29.30
2022-09-28T04:32:36.719Z,31.30
2022-09-28T04:35:04.753Z,25.47
2022-09-28T04:37:33.838Z,28.93
2022-09-28T04:40:01.890Z,28.60
2022-09-28T04:42:29.683Z,28.93
2022-09-28T04:44:58.792Z,26.83
2022-09-28T04:47:26.506Z,30.03
2022-09-28T04:49:54.601Z,26.17
2022-09-28T04:52:22.392Z,28.30
2022-09-28T04:54:51.503Z,28.03
2022-09-28T04:57:19.392Z,28.60
2022-09-28T04:59:47.084Z,28.63
2022-09-28T05:02:15.167Z,28.50
2022-09-28T05:04:43.069Z,27.50
2022-09-28T05:07:10.869Z,29.07
2022-09-28T05:09:38.774Z,25.70
2022-09-28T05:12:09.521Z,25.07
2022-09-28T05:14:37.212Z,27.00
2022-09-28T05:17:05.407Z,27.93
2022-09-28T05:19:34.886Z,24.83
2022-09-28T05:22:04.703Z,27.77
2022-09-28T05:24:32.474Z,28.43
2022-09-28T05:27:00.229Z,28.47
2022-09-28T05:29:32.155Z,26.63
2022-09-28T05:32:01.589Z,27.53
2022-09-28T05:34:29.522Z,26.20
2022-09-28T05:36:57.237Z,27.47
2022-09-28T05:39:25.038Z,28.00
2022-09-28T05:41:52.755Z,26.90
2022-09-28T05:44:20.439Z,29.07
2022-09-28T05:46:49.524Z,30.07
2022-09-28T05:49:17.269Z,27.57
2022-09-28T05:51:45.050Z,30.53
2022-09-28T05:54:12.806Z,29.63
2022-09-28T05:56:40.568Z,29.87
2022-09-28T05:59:08.268Z,29.60
2022-09-28T06:01:36.045Z,26.57
2022-09-28T06:04:05.125Z,28.37
2022-09-28T06:06:32.832Z,29.80
2022-09-28T06:09:00.604Z,29.13
2022-09-28T06:11:28.314Z,28.77
2022-09-28T06:13:56.379Z,29.00
2022-09-28T06:16:24.194Z,27.53
2022-09-28T06:18:52.094Z,27.57
2022-09-28T06:21:21.302Z,26.37
2022-09-28T06:23:51.213Z,28.20
2022-09-28T06:26:18.963Z,27.17
2022-09-28T06:28:46.689Z,24.60
2022-09-28T06:31:14.725Z,25.40
2022-09-28T06:33:42.707Z,25.40
2022-09-28T06:36:10.811Z,22.10
2022-09-28T06:38:39.882Z,22.83
2022-09-28T06:41:07.655Z,21.40
2022-09-28T06:43:36.731Z,22.33
2022-09-28T06:46:04.557Z,19.53
2022-09-28T06:48:33.501Z,19.50
2022-09-28T06:51:01.765Z,19.47
2022-09-28T06:53:30.391Z,20.00
2022-09-28T06:56:00.571Z,20.17
2022-09-28T06:58:28.283Z,16.93
2022-09-28T07:00:59.535Z,20.57
2022-09-28T07:03:27.585Z,16.70
2022-09-28T07:05:56.598Z,16.73
2022-09-28T07:08:26.251Z,16.80
2022-09-28T07:10:56.262Z,16.97
2022-09-28T07:13:50.273Z,15.90
2022-09-28T07:16:15.824Z,14.97
2022-09-28T07:18:43.597Z,13.83
2022-09-28T07:21:24.151Z,15.27
2022-09-28T07:23:56.300Z,14.10
2022-09-28T07:26:24.859Z,12.83
2022-09-28T07:28:54.260Z,13.67
2022-09-28T07:31:22.263Z,13.40
2022-09-28T07:33:51.613Z,12.63
2022-09-28T07:36:20.884Z,13.13
2022-09-28T07:38:48.927Z,13.47
2022-09-28T07:41:21.615Z,14.33
2022-09-28T07:43:50.124Z,12.53
2022-09-28T07:46:20.645Z,13.43
2022-09-28T07:48:49.566Z,11.97
2022-09-28T07:51:19.765Z,12.13
2022-09-28T07:53:48.039Z,10.77
2022-09-28T07:56:17.425Z,10.57
2022-09-28T07:58:45.146Z,10.23
2022-09-28T08:01:14.916Z,10.63
2022-09-28T08:03:47.869Z,10.80
2022-09-28T08:06:18.016Z,10.27
2022-09-28T08:08:46.117Z,10.60
2022-09-28T08:11:14.538Z,10.50
2022-09-28T08:13:42.622Z,9.87
2022-09-28T08:16:11.845Z,10.53
2022-09-28T08:18:39.674Z,10.13
2022-09-28T08:21:25.988Z,10.23
2022-09-28T08:23:54.023Z,9.73
2022-09-28T08:26:21.796Z,11.43
2022-09-28T08:28:50.105Z,12.27
2022-09-28T08:31:17.890Z,9.60
2022-09-28T08:33:45.735Z,7.20
2022-09-28T08:36:14.914Z,7.43
2022-09-28T08:38:43.530Z,7.63
2022-09-28T08:41:20.095Z,7.27
2022-09-28T08:44:04.841Z,7.30
2022-09-28T08:46:38.488Z,6.17
2022-09-28T08:49:26.394Z,7.90
2022-09-28T08:52:01.648Z,5.90
2022-09-28T08:54:39.734Z,6.37
2022-09-28T08:57:12.455Z,6.50
2022-09-28T08:59:52.311Z,6.73
2022-09-28T09:02:25.479Z,5.97
2022-09-28T09:04:53.954Z,6.93
2022-09-28T09:07:46.528Z,5.80
2022-09-28T09:10:30.837Z,5.70
2022-09-28T09:13:12.543Z,4.83
2022-09-28T09:15:51.536Z,5.07
2022-09-28T09:18:27.765Z,6.20
2022-09-28T09:20:58.527Z,4.80
2022-09-28T09:23:37.525Z,5.57
2022-09-28T09:26:16.558Z,5.87
2022-09-28T09:28:57.352Z,5.00
2022-09-28T09:31:40.673Z,4.60
2022-09-28T09:34:33.518Z,5.00
2022-09-28T09:37:12.390Z,4.33
2022-09-28T09:39:52.342Z,4.80
2022-09-28T09:42:37.257Z,4.43
2022-09-28T09:45:29.050Z,4.10
2022-09-28T09:48:03.265Z,3.50
2022-09-28T09:50:36.401Z,3.63
2022-09-28T09:53:11.104Z,3.60
2022-09-28T09:55:44.915Z,3.20
2022-09-28T09:58:18.106Z,3.20
2022-09-28T10:00:49.067Z,3.27
2022-09-28T10:03:23.234Z,3.00
2022-09-28T10:05:57.665Z,3.70
2022-09-28T10:08:28.146Z,3.40
2022-09-28T10:11:07.646Z,3.83
2022-09-28T10:13:35.491Z,3.80
2022-09-28T10:16:04.024Z,3.20
2022-09-28T10:18:31.705Z,3.03
2022-09-28T10:20:59.415Z,3.77
2022-09-28T10:23:30.460Z,3.10
2022-09-28T10:26:04.950Z,2.60
2022-09-28T10:28:36.871Z,2.40
2022-09-28T10:31:35.420Z,2.30
2022-09-28T10:34:04.493Z,2.00
2022-09-28T10:36:38.320Z,3.43
2022-09-28T10:39:06.638Z,2.13
2022-09-28T10:41:49.579Z,2.30
2022-09-28T10:44:19.545Z,2.90
2022-09-28T10:46:57.764Z,3.13
2022-09-28T10:49:27.116Z,2.40
2022-09-28T10:51:56.287Z,2.40
2022-09-28T10:54:26.222Z,2.63
2022-09-28T10:56:57.118Z,2.50
2022-09-28T10:59:40.787Z,2.20
2022-09-28T11:02:22.076Z,2.40
2022-09-28T11:04:55.300Z,2.10
2022-09-28T11:07:25.810Z,2.73
2022-09-28T11:09:56.166Z,2.57
2022-09-28T11:12:27.999Z,2.73
2022-09-28T11:15:01.974Z,2.50
2022-09-28T11:17:32.595Z,2.33
2022-09-28T11:20:02.753Z,2.97
2022-09-28T11:22:41.780Z,3.33
2022-09-28T11:25:22.320Z,3.13
2022-09-28T11:28:04.917Z,2.77
2022-09-28T11:30:35.839Z,2.90
2022-09-28T11:33:06.248Z,2.87
2022-09-28T11:35:46.938Z,3.20
2022-09-28T11:38:34.038Z,3.00
2022-09-28T11:41:17.118Z,2.63
2022-09-28T11:44:17.257Z,2.80
2022-09-28T11:46:53.449Z,2.67
2022-09-28T11:49:31.756Z,2.60
2022-09-28T11:52:04.309Z,2.20
2022-09-28T11:54:41.395Z,2.30
2022-09-28T11:57:15.730Z,3.50
2022-09-28T11:59:55.401Z,3.23
2022-09-28T12:02:27.481Z,2.97
2022-09-28T12:04:59.292Z,2.70
2022-09-28T12:07:32.073Z,2.50
2022-09-28T12:10:04.526Z,3.03
2022-09-28T12:12:36.785Z,3.53
2022-09-28T12:15:16.247Z,3.50
2022-09-28T12:17:48.229Z,5.97
2022-09-28T12:20:23.712Z,10.07
2022-09-28T12:23:02.373Z,11.13
2022-09-28T12:25:38.713Z,11.17
2022-09-28T12:28:09.541Z,11.63
2022-09-28T12:30:42.502Z,10.97
2022-09-28T12:33:13.838Z,8.07
2022-09-28T12:35:54.721Z,8.20
2022-09-28T12:38:38.421Z,6.33
2022-09-28T12:41:20.998Z,6.47
2022-09-28T12:44:01.784Z,8.53
2022-09-28T12:46:40.111Z,9.90
2022-09-28T12:52:29.854Z,9.63
2022-09-28T12:55:20.079Z,9.53
2022-09-28T12:57:58.266Z,11.23
2022-09-28T13:00:32.192Z,10.20
2022-09-28T13:03:22.546Z,9.80
2022-09-28T13:06:16.424Z,10.60
2022-09-28T13:08:57.628Z,12.13
2022-09-28T13:11:34.097Z,8.77
2022-09-28T13:14:22.726Z,9.40
2022-09-28T13:17:01.409Z,8.33
2022-09-28T13:19:42.209Z,8.37
2022-09-28T13:22:23.915Z,11.07
2022-09-28T13:24:56.188Z,10.97
2022-09-28T13:27:32.951Z,8.30
2022-09-28T13:30:03.821Z,12.93
2022-09-28T13:32:33.562Z,8.73
2022-09-28T13:35:03.338Z,8.07
2022-09-28T13:37:31.128Z,8.47
2022-09-28T13:39:59.830Z,7.77
2022-09-28T13:42:52.974Z,13.03
2022-09-28T13:45:56.613Z,8.87
2022-09-28T13:48:35.692Z,18.90
2022-09-28T13:51:30.496Z,9.50
2022-09-28T13:54:17.274Z,9.00
2022-09-28T13:56:54.949Z,8.87
2022-09-28T13:59:27.010Z,7.80
2022-09-28T14:02:06.560Z,7.50
2022-09-28T14:04:54.951Z,8.13
2022-09-28T14:10:18.694Z,11.80
2022-09-28T14:12:49.599Z,10.37
2022-09-28T14:15:40.249Z,8.00
2022-09-28T14:18:19.139Z,8.87
2022-09-28T14:20:58.736Z,7.10
2022-09-28T14:23:58.926Z,6.80
2022-09-28T14:26:56.612Z,5.97
2022-09-28T14:29:31.398Z,6.10
2022-09-28T14:32:04.657Z,8.77
2022-09-28T14:34:36.710Z,6.83
2022-09-28T14:37:34.686Z,5.73
2022-09-28T14:40:34.443Z,6.67
2022-09-28T14:43:28.574Z,6.70
2022-09-28T14:46:28.446Z,7.37
2022-09-28T14:48:57.265Z,7.13
2022-09-28T14:52:02.571Z,7.43
2022-09-28T14:54:40.923Z,8.33
2022-09-28T14:57:19.213Z,15.70
2022-09-28T14:59:47.752Z,8.20
2022-09-28T15:02:21.644Z,7.10
2022-09-28T15:04:53.332Z,8.07
2022-09-28T15:07:23.800Z,8.20
2022-09-28T15:09:53.581Z,7.77
2022-09-28T15:12:26.966Z,8.07
2022-09-28T15:14:58.316Z,7.77
2022-09-28T15:17:29.426Z,8.17
2022-09-28T15:20:24.360Z,5.07
2022-09-28T15:22:57.054Z,4.83
2022-09-28T15:25:26.880Z,4.57
2022-09-28T15:27:57.629Z,5.67
2022-09-28T15:30:28.859Z,5.30
2022-09-28T15:33:18.223Z,5.67
2022-09-28T15:35:49.772Z,5.50
2022-09-28T15:38:18.736Z,5.63
2022-09-28T15:40:47.731Z,6.33
2022-09-28T15:43:27.139Z,6.53
2022-09-28T15:46:07.192Z,6.90
2022-09-28T15:48:40.958Z,7.17
2022-09-28T15:51:11.842Z,7.00
2022-09-28T15:53:48.262Z,7.03
2022-09-28T15:56:16.153Z,8.57
2022-09-28T15:58:47.006Z,6.97
2022-09-28T16:01:36.078Z,9.33
2022-09-28T16:04:39.171Z,5.93
2022-09-28T16:07:20.322Z,9.70
2022-09-28T16:10:02.910Z,7.07
2022-09-28T16:12:43.288Z,6.17
2022-09-28T16:15:20.325Z,5.80
2022-09-28T16:17:53.469Z,5.80
2022-09-28T16:20:29.400Z,6.43
2022-09-28T16:22:59.586Z,5.70
2022-09-28T16:25:28.331Z,5.37
2022-09-28T16:27:56.829Z,5.73
2022-09-28T16:30:28.814Z,6.10
2022-09-28T16:32:58.057Z,6.50
2022-09-28T16:35:28.386Z,6.60
2022-09-28T16:38:02.389Z,6.83
2022-09-28T16:40:31.740Z,6.07
2022-09-28T16:43:02.903Z,6.10
2022-09-28T16:45:32.955Z,6.23
2022-09-28T16:48:01.662Z,6.43
2022-09-28T16:50:29.694Z,6.23
2022-09-28T16:53:19.201Z,6.20
2022-09-28T16:55:48.929Z,7.60
2022-09-28T16:58:16.676Z,6.70
2022-09-28T17:00:45.782Z,6.37
2022-09-28T17:03:19.316Z,8.13
2022-09-28T17:05:49.070Z,6.23
2022-09-28T17:08:19.600Z,6.53
2022-09-28T17:11:14.038Z,7.27
2022-09-28T17:13:41.475Z,6.83
2022-09-28T17:16:15.077Z,6.93
2022-09-28T17:18:43.027Z,7.23
2022-09-28T17:21:15.854Z,7.57
2022-09-28T17:23:44.008Z,8.93
2022-09-28T17:26:19.399Z,9.53
2022-09-28T17:28:47.444Z,8.00
2022-09-28T17:31:17.556Z,7.63
2022-09-28T17:33:45.357Z,8.20
2022-09-28T17:36:16.038Z,8.83
2022-09-28T17:38:44.464Z,44.57
2022-09-28T17:41:16.793Z,8.70
2022-09-28T17:43:47.400Z,8.97
2022-09-28T17:46:27.160Z,9.77
2022-09-28T17:48:57.679Z,9.20
2022-09-28T17:51:25.362Z,11.37
2022-09-28T17:53:53.306Z,11.70
2022-09-28T17:56:21.303Z,27.37
2022-09-28T17:58:49.149Z,17.93
2022-09-28T18:01:17.036Z,15.80
2022-09-28T18:03:46.134Z,14.47
2022-09-28T18:06:15.677Z,12.73
2022-09-28T18:08:44.408Z,12.93
2022-09-28T18:11:12.543Z,12.23
2022-09-28T18:13:40.630Z,13.97
2022-09-28T18:16:09.419Z,15.27
2022-09-28T18:18:39.745Z,14.17
2022-09-28T18:21:09.083Z,12.20
2022-09-28T18:23:37.308Z,15.27
2022-09-28T18:26:05.549Z,13.17
2022-09-28T18:28:33.233Z,15.97
2022-09-28T18:31:00.974Z,16.47
2022-09-28T18:33:28.694Z,15.70
2022-09-28T18:35:56.466Z,16.70
2022-09-28T18:38:25.568Z,16.13
2022-09-28T18:40:54.522Z,15.60
2022-09-28T18:43:22.278Z,17.33
2022-09-28T18:45:50.006Z,16.53
2022-09-28T18:48:17.812Z,14.93
2022-09-28T18:50:45.553Z,17.27
2022-09-28T18:53:13.309Z,22.83
2022-09-28T18:55:44.690Z,18.13
2022-09-28T18:58:12.986Z,16.40
2022-09-28T19:00:42.402Z,15.33
2022-09-28T19:03:14.372Z,16.00
2022-09-28T19:05:43.121Z,13.03
2022-09-28T19:08:11.008Z,13.47
2022-09-28T19:10:38.710Z,14.20
2022-09-28T19:13:07.811Z,16.40
2022-09-28T19:15:35.657Z,15.10
2022-09-28T19:18:03.926Z,15.00
2022-09-28T19:20:33.743Z,12.83
2022-09-28T19:23:02.050Z,16.73
2022-09-28T19:25:29.914Z,13.20
2022-09-28T19:27:57.697Z,15.40
2022-09-28T19:30:26.760Z,15.53
2022-09-28T19:32:54.464Z,14.93
2022-09-28T19:35:22.180Z,17.80
2022-09-28T19:37:51.397Z,21.40
2022-09-28T19:40:19.194Z,17.80
2022-09-28T19:42:46.998Z,17.80
2022-09-28T19:45:14.713Z,15.43
2022-09-28T19:47:44.005Z,13.77
2022-09-28T19:50:11.713Z,17.93
2022-09-28T19:52:39.396Z,16.70
2022-09-28T19:55:08.208Z,14.33
2022-09-28T19:57:36.001Z,13.67
2022-09-28T20:00:04.183Z,13.40
2022-09-28T20:02:32.115Z,13.10
2022-09-28T20:05:01.390Z,13.93
2022-09-28T20:07:33.071Z,14.03
2022-09-28T20:10:00.921Z,13.27
2022-09-28T20:12:28.717Z,14.73
2022-09-28T20:14:56.431Z,13.83
2022-09-28T20:17:24.213Z,12.60
2022-09-28T20:19:52.247Z,14.87
2022-09-28T20:22:21.410Z,11.20
2022-09-28T20:24:49.103Z,14.00
2022-09-28T20:27:16.840Z,12.30
2022-09-28T20:29:44.510Z,11.10
2022-09-28T20:32:12.563Z,14.33
2022-09-28T20:34:40.264Z,13.43
2022-09-28T20:37:07.970Z,16.60
2022-09-28T20:39:40.347Z,12.93
2022-09-28T20:42:10.549Z,10.83
2022-09-28T20:44:38.282Z,14.60
2022-09-28T20:47:06.109Z,11.37
2022-09-28T20:49:33.793Z,12.20
2022-09-28T20:52:01.688Z,14.37
2022-09-28T20:54:29.390Z,15.10
2022-09-28T20:56:58.475Z,14.93
2022-09-28T20:59:27.685Z,14.63
2022-09-28T21:01:55.419Z,13.50
2022-09-28T21:04:23.168Z,14.67
2022-09-28T21:06:50.893Z,12.50
2022-09-28T21:09:18.591Z,15.80
2022-09-28T21:11:46.764Z,13.97
2022-09-28T21:14:15.878Z,14.40
2022-09-28T21:16:43.617Z,14.00
2022-09-28T21:19:11.397Z,16.37
2022-09-28T21:21:39.476Z,15.50
2022-09-28T21:24:07.809Z,17.30
2022-09-28T21:26:35.575Z,14.97
2022-09-28T21:29:04.787Z,17.37
2022-09-28T21:31:39.106Z,14.27
2022-09-28T21:34:07.169Z,15.83
2022-09-28T21:36:34.938Z,16.67
2022-09-28T21:39:05.017Z,17.20
2022-09-28T21:41:36.036Z,18.77
2022-09-28T21:44:03.901Z,15.53
2022-09-28T21:46:34.720Z,14.83
2022-09-28T21:49:02.975Z,15.53
2022-09-28T21:51:31.385Z,14.43
2022-09-28T21:53:59.259Z,16.10
2022-09-28T21:56:27.747Z,15.47
2022-09-28T21:58:55.474Z,16.97
2022-09-28T22:01:25.538Z,16.93
2022-09-28T22:03:57.249Z,17.93
2022-09-28T22:06:28.187Z,16.83
2022-09-28T22:08:56.479Z,15.80
2022-09-28T22:11:26.093Z,14.53
2022-09-28T22:13:56.418Z,15.73
2022-09-28T22:16:26.279Z,17.40
2022-09-28T22:18:58.601Z,15.80
2022-09-28T22:21:28.281Z,16.63
2022-09-28T22:24:00.838Z,18.00
2022-09-28T22:26:29.400Z,14.33
2022-09-28T22:28:58.729Z,16.37
2022-09-28T22:31:29.557Z,18.87
2022-09-28T22:33:59.106Z,14.93
2022-09-28T22:36:27.152Z,16.73
2022-09-28T22:38:56.051Z,16.57
2022-09-28T22:41:24.927Z,17.50
2022-09-28T22:43:54.569Z,18.17
2022-09-28T22:46:23.977Z,16.50
2022-09-28T22:48:53.246Z,18.53
2022-09-28T22:51:23.402Z,18.20
2022-09-28T22:53:51.197Z,21.10
2022-09-28T22:56:19.421Z,19.13
2022-09-28T22:58:47.876Z,21.30
2022-09-28T23:01:18.530Z,20.57
2022-09-28T23:03:46.680Z,20.07
2022-09-28T23:06:16.570Z,19.93
2022-09-28T23:08:47.293Z,22.43
2022-09-28T23:11:15.769Z,18.67
2022-09-28T23:13:43.513Z,18.67
2022-09-28T23:16:14.831Z,20.57
2022-09-28T23:18:42.898Z,19.63
2022-09-28T23:21:15.205Z,19.53
2022-09-28T23:23:43.327Z,17.53
2022-09-28T23:26:15.957Z,20.20
2022-09-28T23:28:43.884Z,17.97
2022-09-28T23:31:13.730Z,19.83
2022-09-28T23:33:41.818Z,19.43
2022-09-28T23:36:10.460Z,17.70
2022-09-28T23:38:38.479Z,21.40
2022-09-28T23:41:06.299Z,19.90
2022-09-28T23:43:36.152Z,17.70
2022-09-28T23:46:04.352Z,17.73
2022-09-28T23:48:32.484Z,19.47
2022-09-28T23:51:00.612Z,18.53
2022-09-28T23:53:29.258Z,18.10
2022-09-28T23:55:56.973Z,20.67
2022-09-28T23:58:25.724Z,18.77
